Terminal Aerodrome Forecast
Issued by NWS

Home | Current Version | Previous Version | Text Only | Print | Product List | Glossary Off
Versions: 1 2 3 4 5 6 7 8 9 10 11 12 13

000
FTUS43 KUNR 311120
TAFGCC
TAF
KGCC 311120Z 3112/0112 29008KT P6SM BKN080
     FM311500 33010KT P6SM SCT050 BKN150
     FM010200 11006KT P6SM BKN150=

USA.gov is the U.S. government's official web portal to all federal, state and local government web resources and services.